createdAt,value
2019-05-30T00:00:06.683Z,4.10
2019-05-30T00:00:53.934Z,4.90
2019-05-30T00:01:54.203Z,4.10
2019-05-30T00:02:54.031Z,3.30
2019-05-30T00:03:54.018Z,4.80
2019-05-30T00:04:54.083Z,3.40
2019-05-30T00:05:54.285Z,5.10
2019-05-30T00:06:54.288Z,2.90
2019-05-30T00:07:54.133Z,2.80
2019-05-30T00:08:54.299Z,4.00
2019-05-30T00:09:54.283Z,3.40
2019-05-30T00:10:54.346Z,3.60
2019-05-30T00:11:54.678Z,4.50
2019-05-30T00:12:54.625Z,4.70
2019-05-30T00:13:54.569Z,3.40
2019-05-30T00:14:54.498Z,3.50
2019-05-30T00:15:54.592Z,3.70
2019-05-30T00:16:54.606Z,3.90
2019-05-30T00:17:54.523Z,5.20
2019-05-30T00:18:54.552Z,2.60
2019-05-30T00:19:54.814Z,3.20
2019-05-30T00:20:54.593Z,4.70
2019-05-30T00:21:54.623Z,3.80
2019-05-30T00:22:54.553Z,2.60
2019-05-30T00:23:53.304Z,3.40
2019-05-30T00:24:53.286Z,2.90
2019-05-30T00:25:53.260Z,5.50
2019-05-30T00:26:53.240Z,3.60
2019-05-30T00:27:53.255Z,2.20
2019-05-30T00:28:53.235Z,3.80
2019-05-30T00:29:53.193Z,4.10
2019-05-30T00:30:53.177Z,3.60
2019-05-30T00:31:53.157Z,2.40
2019-05-30T00:32:53.162Z,4.00
2019-05-30T00:33:53.153Z,2.20
2019-05-30T00:34:53.108Z,4.80
2019-05-30T00:35:53.104Z,3.20
2019-05-30T00:36:53.078Z,4.40
2019-05-30T00:37:53.060Z,4.50
2019-05-30T00:38:53.054Z,8.80
2019-05-30T00:39:53.026Z,4.40
2019-05-30T00:40:53.011Z,3.60
2019-05-30T00:41:53.007Z,4.20
2019-05-30T00:42:52.999Z,3.20
2019-05-30T00:43:52.955Z,3.70
2019-05-30T00:44:52.940Z,3.70
2019-05-30T00:45:52.927Z,5.20
2019-05-30T00:46:52.911Z,4.00
2019-05-30T00:47:52.907Z,4.50
2019-05-30T00:48:52.875Z,4.10
2019-05-30T00:49:52.859Z,3.50
2019-05-30T00:50:52.838Z,2.70
2019-05-30T00:51:52.827Z,5.50
2019-05-30T00:52:52.838Z,5.00
2019-05-30T00:53:52.789Z,4.10
2019-05-30T00:54:52.771Z,2.10
2019-05-30T00:55:52.758Z,1.90
2019-05-30T00:56:52.738Z,3.90
2019-05-30T00:57:52.720Z,3.90
2019-05-30T00:58:52.716Z,4.60
2019-05-30T00:59:52.690Z,3.70
2019-05-30T01:00:52.664Z,3.70
2019-05-30T01:01:52.648Z,4.10
2019-05-30T01:02:52.671Z,3.40
2019-05-30T01:03:52.638Z,3.80
2019-05-30T01:04:52.617Z,4.90
2019-05-30T01:05:52.597Z,3.40
2019-05-30T01:06:52.581Z,2.80
2019-05-30T01:07:52.553Z,2.80
2019-05-30T01:08:52.535Z,4.30
2019-05-30T01:09:52.525Z,4.70
2019-05-30T01:10:52.524Z,5.20
2019-05-30T01:11:52.498Z,6.60
2019-05-30T01:12:52.467Z,3.20
2019-05-30T01:13:52.448Z,3.80
2019-05-30T01:14:52.447Z,2.50
2019-05-30T01:15:52.416Z,3.10
2019-05-30T01:16:52.401Z,2.70
2019-05-30T01:17:52.381Z,3.90
2019-05-30T01:18:52.370Z,3.20
2019-05-30T01:19:52.347Z,5.30
2019-05-30T01:20:52.355Z,3.50
2019-05-30T01:21:52.311Z,3.50
2019-05-30T01:22:52.295Z,4.40
2019-05-30T01:23:52.293Z,2.60
2019-05-30T01:24:52.260Z,4.60
2019-05-30T01:25:52.246Z,4.30
2019-05-30T01:26:52.246Z,3.50
2019-05-30T01:27:52.208Z,4.30
2019-05-30T01:28:52.216Z,3.00
2019-05-30T01:29:52.176Z,5.20
2019-05-30T01:31:00.282Z,2.50
2019-05-30T01:31:52.202Z,2.70
2019-05-30T01:32:52.234Z,2.70
2019-05-30T01:33:52.108Z,4.10
2019-05-30T01:34:52.087Z,5.30
2019-05-30T01:35:52.070Z,2.40
2019-05-30T01:36:52.074Z,2.80
2019-05-30T01:37:52.072Z,5.10
2019-05-30T01:38:52.027Z,2.80
2019-05-30T01:39:52.009Z,2.10
2019-05-30T01:40:51.989Z,2.90
2019-05-30T01:41:52.022Z,2.10
2019-05-30T01:42:51.966Z,3.00
2019-05-30T01:43:51.973Z,4.10
2019-05-30T01:44:51.924Z,3.50
2019-05-30T01:45:51.905Z,2.50
2019-05-30T01:46:51.888Z,3.70
2019-05-30T01:47:51.871Z,4.90
2019-05-30T01:48:51.852Z,3.30
2019-05-30T01:49:51.871Z,3.30
2019-05-30T01:50:51.816Z,3.60
2019-05-30T01:51:51.802Z,2.70
2019-05-30T01:52:51.788Z,3.00
2019-05-30T01:53:51.789Z,2.20
2019-05-30T01:54:51.748Z,1.90
2019-05-30T01:55:51.750Z,4.20
2019-05-30T01:56:51.737Z,2.90
2019-05-30T01:57:51.699Z,2.20
2019-05-30T01:58:51.700Z,3.20
2019-05-30T01:59:51.665Z,2.20
2019-05-30T02:00:51.650Z,5.10
2019-05-30T02:01:51.629Z,4.70
2019-05-30T02:02:51.636Z,2.10
2019-05-30T02:03:51.609Z,2.40
2019-05-30T02:04:51.577Z,1.70
2019-05-30T02:05:51.569Z,3.30
2019-05-30T02:06:51.550Z,2.40
2019-05-30T02:07:51.568Z,2.10
2019-05-30T02:08:51.636Z,2.80
2019-05-30T02:09:51.504Z,2.40
2019-05-30T02:10:51.481Z,3.60
2019-05-30T02:11:51.463Z,2.30
2019-05-30T02:12:51.448Z,2.00
2019-05-30T02:13:51.477Z,2.00
2019-05-30T02:14:51.429Z,2.10
2019-05-30T02:15:51.418Z,1.90
2019-05-30T02:16:51.382Z,2.90
2019-05-30T02:17:51.367Z,3.10
2019-05-30T02:18:51.365Z,2.50
2019-05-30T02:19:51.368Z,2.40
2019-05-30T02:20:51.318Z,2.70
2019-05-30T02:21:51.295Z,2.00
2019-05-30T02:22:51.284Z,3.60
2019-05-30T02:23:51.258Z,2.70
2019-05-30T02:24:51.244Z,2.50
2019-05-30T02:25:51.241Z,4.30
2019-05-30T02:26:51.231Z,2.00
2019-05-30T02:27:51.215Z,2.40
2019-05-30T02:28:51.195Z,3.20
2019-05-30T02:29:51.173Z,2.20
2019-05-30T02:30:51.149Z,3.70
2019-05-30T02:31:51.161Z,2.20
2019-05-30T02:32:51.107Z,2.10
2019-05-30T02:33:51.090Z,3.10
2019-05-30T02:34:51.074Z,2.30
2019-05-30T02:35:51.053Z,2.00
2019-05-30T02:36:51.037Z,2.40
2019-05-30T02:37:51.066Z,2.30
2019-05-30T02:38:51.008Z,2.60
2019-05-30T02:39:50.986Z,3.20
2019-05-30T02:40:50.973Z,2.20
2019-05-30T02:41:50.966Z,3.60
2019-05-30T02:42:50.956Z,3.00
2019-05-30T02:43:50.926Z,3.20
2019-05-30T02:44:50.944Z,1.90
2019-05-30T02:45:50.891Z,3.60
2019-05-30T02:46:50.866Z,14.70
2019-05-30T02:47:50.852Z,68.60
2019-05-30T02:48:58.909Z,59.30
2019-05-30T02:49:50.822Z,38.30
2019-05-30T02:50:50.816Z,20.10
2019-05-30T02:51:50.787Z,10.80
2019-05-30T02:52:50.767Z,5.70
2019-05-30T02:53:50.769Z,4.20
2019-05-30T02:54:50.738Z,3.00
2019-05-30T02:55:50.719Z,2.40
2019-05-30T02:56:50.697Z,2.50
2019-05-30T02:57:50.685Z,4.00
2019-05-30T02:58:50.666Z,2.50
2019-05-30T02:59:50.678Z,2.20
2019-05-30T03:00:50.637Z,2.50
2019-05-30T03:02:01.078Z,2.40
2019-05-30T03:02:50.600Z,2.50
2019-05-30T03:03:50.579Z,2.40
2019-05-30T03:04:50.584Z,3.10
2019-05-30T03:05:50.579Z,4.80
2019-05-30T03:06:50.533Z,2.00
2019-05-30T03:07:50.517Z,2.60
2019-05-30T03:08:50.500Z,2.30
2019-05-30T03:09:50.486Z,3.70
2019-05-30T03:10:50.463Z,2.00
2019-05-30T03:11:50.463Z,3.50
2019-05-30T03:12:50.460Z,2.00
2019-05-30T03:13:50.421Z,2.10
2019-05-30T03:14:50.395Z,3.30
2019-05-30T03:15:50.381Z,1.90
2019-05-30T03:16:50.361Z,3.20
2019-05-30T03:17:50.348Z,4.60
2019-05-30T03:18:50.348Z,3.00
2019-05-30T03:19:50.325Z,2.80
2019-05-30T03:20:50.305Z,2.70
2019-05-30T03:21:50.281Z,2.20
2019-05-30T03:22:50.284Z,4.70
2019-05-30T03:23:50.244Z,2.50
2019-05-30T03:24:50.229Z,3.90
2019-05-30T03:25:50.216Z,1.90
2019-05-30T03:26:50.192Z,2.20
2019-05-30T03:27:50.178Z,3.10
2019-05-30T03:28:53.411Z,3.10
2019-05-30T03:29:50.174Z,3.00
2019-05-30T03:30:50.170Z,2.90
2019-05-30T03:31:50.110Z,2.90
2019-05-30T03:33:19.293Z,2.60
2019-05-30T03:33:50.090Z,3.00
2019-05-30T03:34:50.061Z,3.00
2019-05-30T03:35:50.128Z,2.40
2019-05-30T03:36:50.036Z,3.20
2019-05-30T03:37:50.008Z,2.30
2019-05-30T03:38:50.006Z,2.70
2019-05-30T03:39:49.975Z,2.20
2019-05-30T03:40:49.974Z,2.10
2019-05-30T03:41:49.958Z,3.00
2019-05-30T03:42:49.926Z,2.90
2019-05-30T03:43:49.913Z,4.00
2019-05-30T03:44:49.891Z,2.30
2019-05-30T03:45:49.878Z,2.60
2019-05-30T03:46:49.854Z,2.90
2019-05-30T03:47:49.855Z,5.20
2019-05-30T03:48:49.824Z,3.70
2019-05-30T03:49:49.806Z,3.30
2019-05-30T03:50:49.785Z,5.10
2019-05-30T03:51:49.772Z,6.80
2019-05-30T03:52:49.753Z,4.70
2019-05-30T03:53:49.772Z,6.00
2019-05-30T03:54:49.722Z,3.20
2019-05-30T03:55:49.709Z,3.00
2019-05-30T03:56:49.703Z,2.90
2019-05-30T03:57:49.672Z,4.00
2019-05-30T03:58:49.651Z,2.40
2019-05-30T03:59:49.657Z,2.90
2019-05-30T04:00:51.098Z,3.30
2019-05-30T04:01:49.604Z,2.70
2019-05-30T04:02:57.239Z,4.00
2019-05-30T04:03:49.573Z,4.30
2019-05-30T04:04:49.557Z,2.60
2019-05-30T04:05:49.552Z,3.50
2019-05-30T04:06:49.513Z,3.90
2019-05-30T04:07:49.502Z,2.90
2019-05-30T04:08:49.485Z,2.90
2019-05-30T04:09:49.500Z,3.40
2019-05-30T04:10:49.446Z,2.50
2019-05-30T04:11:49.437Z,2.60
2019-05-30T04:12:49.419Z,3.10
2019-05-30T04:13:49.406Z,3.50
2019-05-30T04:14:49.382Z,3.20
2019-05-30T04:15:49.381Z,3.30
2019-05-30T04:16:49.369Z,2.50
2019-05-30T04:17:49.334Z,4.50
2019-05-30T04:18:49.321Z,3.40
2019-05-30T04:19:49.299Z,3.20
2019-05-30T04:20:49.300Z,3.50
2019-05-30T04:21:49.285Z,3.80
2019-05-30T04:22:49.249Z,2.80
2019-05-30T04:23:49.235Z,3.80
2019-05-30T04:24:49.230Z,2.70
2019-05-30T04:25:49.200Z,3.00
2019-05-30T04:26:49.187Z,3.00
2019-05-30T04:27:49.181Z,3.70
2019-05-30T04:28:49.172Z,3.40
2019-05-30T04:29:49.134Z,2.70
2019-05-30T04:30:49.112Z,2.30
2019-05-30T04:31:49.110Z,4.00
2019-05-30T04:32:49.083Z,2.50
2019-05-30T04:33:49.069Z,3.80
2019-05-30T04:34:49.068Z,2.50
2019-05-30T04:35:49.038Z,3.00
2019-05-30T04:36:53.102Z,2.40
2019-05-30T04:37:49.007Z,2.40
2019-05-30T04:38:48.987Z,2.90
2019-05-30T04:39:48.998Z,3.00
2019-05-30T04:40:48.945Z,3.50
2019-05-30T04:41:48.933Z,3.20
2019-05-30T04:42:48.922Z,2.50
2019-05-30T04:43:48.897Z,3.70
2019-05-30T04:44:48.884Z,2.30
2019-05-30T04:45:48.888Z,3.10
2019-05-30T04:46:48.849Z,3.70
2019-05-30T04:47:48.826Z,2.30
2019-05-30T04:48:48.819Z,3.40
2019-05-30T04:49:48.816Z,2.40
2019-05-30T04:50:48.789Z,2.30
2019-05-30T04:51:48.763Z,2.40
2019-05-30T04:52:48.740Z,2.10
2019-05-30T04:53:48.734Z,3.30
2019-05-30T04:54:48.709Z,6.70
2019-05-30T04:55:48.717Z,4.10
2019-05-30T04:56:48.677Z,3.00
2019-05-30T04:57:48.662Z,2.80
2019-05-30T04:58:48.646Z,3.00
2019-05-30T04:59:48.645Z,3.40
2019-05-30T05:00:48.609Z,2.70
2019-05-30T05:01:48.605Z,2.90
2019-05-30T05:02:48.566Z,2.50
2019-05-30T05:03:48.559Z,4.80
2019-05-30T05:04:48.546Z,2.30
2019-05-30T05:05:48.541Z,2.60
2019-05-30T05:06:48.503Z,3.00
2019-05-30T05:07:48.485Z,2.40
2019-05-30T05:08:48.474Z,4.50
2019-05-30T05:09:48.478Z,3.50
2019-05-30T05:10:48.453Z,3.90
2019-05-30T05:11:48.418Z,3.00
2019-05-30T05:12:48.400Z,2.40
2019-05-30T05:13:48.400Z,2.70
2019-05-30T05:14:48.395Z,2.60
2019-05-30T05:15:48.371Z,5.20
2019-05-30T05:16:48.338Z,3.00
2019-05-30T05:17:48.319Z,3.60
2019-05-30T05:18:48.306Z,2.50
2019-05-30T05:19:48.285Z,3.30
2019-05-30T05:20:48.277Z,2.80
2019-05-30T05:21:48.273Z,2.50
2019-05-30T05:22:48.233Z,3.90
2019-05-30T05:23:48.232Z,2.70
2019-05-30T05:24:48.201Z,3.50
2019-05-30T05:26:00.259Z,3.20
2019-05-30T05:26:48.167Z,3.80
2019-05-30T05:27:48.176Z,3.90
2019-05-30T05:28:48.138Z,3.30
2019-05-30T05:29:48.133Z,3.20
2019-05-30T05:30:48.096Z,3.70
2019-05-30T05:31:48.083Z,3.10
2019-05-30T05:32:48.067Z,3.60
2019-05-30T05:33:56.639Z,2.70
2019-05-30T05:34:48.035Z,3.10
2019-05-30T05:35:48.016Z,2.60
2019-05-30T05:36:48.024Z,2.40
2019-05-30T05:37:47.983Z,2.90
2019-05-30T05:38:47.965Z,3.90
2019-05-30T05:39:47.947Z,3.70
2019-05-30T05:40:47.932Z,3.00
2019-05-30T05:41:47.932Z,3.20
2019-05-30T05:42:47.906Z,2.70
2019-05-30T05:43:47.898Z,2.50
2019-05-30T05:44:47.862Z,5.50
2019-05-30T05:45:47.864Z,3.20
2019-05-30T05:46:47.861Z,3.60
2019-05-30T05:47:47.814Z,3.20
2019-05-30T05:48:47.798Z,3.80
2019-05-30T05:49:47.775Z,3.60
2019-05-30T05:50:47.776Z,4.60
2019-05-30T05:51:47.745Z,3.50
2019-05-30T05:52:47.740Z,3.50
2019-05-30T05:53:47.713Z,2.90
2019-05-30T05:54:47.706Z,2.80
2019-05-30T05:55:47.685Z,2.80
2019-05-30T05:56:47.661Z,3.40
2019-05-30T05:57:47.661Z,3.00
2019-05-30T05:58:47.667Z,3.20
2019-05-30T05:59:47.609Z,2.70
2019-05-30T06:00:47.607Z,3.90
2019-05-30T06:01:47.579Z,3.90
2019-05-30T06:02:47.557Z,5.10
2019-05-30T06:03:47.542Z,3.60
2019-05-30T06:04:47.544Z,3.10
2019-05-30T06:05:52.946Z,4.40
2019-05-30T06:06:47.501Z,3.80
2019-05-30T06:07:47.475Z,3.40
2019-05-30T06:08:47.459Z,4.00
2019-05-30T06:09:47.451Z,4.40
2019-05-30T06:10:47.443Z,2.80
2019-05-30T06:11:49.143Z,3.10
2019-05-30T06:12:47.420Z,4.20
2019-05-30T06:13:47.380Z,3.50
2019-05-30T06:14:47.359Z,3.20
2019-05-30T06:15:47.340Z,3.10
2019-05-30T06:16:47.332Z,3.60
2019-05-30T06:17:47.315Z,2.30
2019-05-30T06:18:47.314Z,3.40
2019-05-30T06:19:47.280Z,3.00
2019-05-30T06:20:47.260Z,4.00
2019-05-30T06:21:53.998Z,3.70
2019-05-30T06:22:47.235Z,2.80
2019-05-30T06:23:47.240Z,2.70
2019-05-30T06:24:47.189Z,2.10
2019-05-30T06:25:47.174Z,3.00
2019-05-30T06:26:47.157Z,2.30
2019-05-30T06:27:47.140Z,5.50
2019-05-30T06:28:47.179Z,2.10
2019-05-30T06:29:47.103Z,2.90
2019-05-30T06:30:47.088Z,2.20
2019-05-30T06:31:47.084Z,3.30
2019-05-30T06:32:47.056Z,2.30
2019-05-30T06:33:47.037Z,3.30
2019-05-30T06:34:47.031Z,3.40
2019-05-30T06:35:47.013Z,2.70
2019-05-30T06:36:46.984Z,3.30
2019-05-30T06:37:46.970Z,4.30
2019-05-30T06:38:46.974Z,3.30
2019-05-30T06:39:46.937Z,1.90
2019-05-30T06:40:46.920Z,2.70
2019-05-30T06:41:46.904Z,2.10
2019-05-30T06:42:46.884Z,3.20
2019-05-30T06:43:46.865Z,1.60
2019-05-30T06:44:46.896Z,2.50
2019-05-30T06:45:46.852Z,1.70
2019-05-30T06:46:46.817Z,1.70
2019-05-30T06:47:46.810Z,2.30
2019-05-30T06:48:46.779Z,4.10
2019-05-30T06:49:46.767Z,1.90
2019-05-30T06:50:46.766Z,2.70
2019-05-30T06:51:46.728Z,5.50
2019-05-30T06:52:46.764Z,2.30
2019-05-30T06:53:46.704Z,2.70
2019-05-30T06:54:46.679Z,2.00
2019-05-30T06:55:46.665Z,2.50
2019-05-30T06:56:46.650Z,2.60
2019-05-30T06:57:46.658Z,2.50
2019-05-30T06:58:49.084Z,1.80
2019-05-30T06:59:46.597Z,2.10
2019-05-30T07:00:46.585Z,2.80
2019-05-30T07:01:46.567Z,2.70
2019-05-30T07:02:46.564Z,3.70
2019-05-30T07:03:46.694Z,1.60
2019-05-30T07:04:51.490Z,2.30
2019-05-30T07:05:46.916Z,2.40
2019-05-30T07:06:46.778Z,3.10
2019-05-30T07:07:46.551Z,3.20
2019-05-30T07:08:46.441Z,2.00
2019-05-30T07:09:46.450Z,2.20
2019-05-30T07:10:46.416Z,2.30
2019-05-30T07:11:46.392Z,1.60
2019-05-30T07:12:46.378Z,2.10
2019-05-30T07:13:46.376Z,1.50
2019-05-30T07:14:46.347Z,1.60
2019-05-30T07:15:46.374Z,3.20
2019-05-30T07:16:46.315Z,2.80
2019-05-30T07:17:46.307Z,3.50
2019-05-30T07:18:46.285Z,3.00
2019-05-30T07:19:46.255Z,1.70
2019-05-30T07:20:46.242Z,2.00
2019-05-30T07:21:46.237Z,1.60
2019-05-30T07:22:46.203Z,1.70
2019-05-30T07:23:46.206Z,2.40
2019-05-30T07:24:46.171Z,1.90
2019-05-30T07:25:46.156Z,1.70
2019-05-30T07:26:46.139Z,2.00
2019-05-30T07:27:46.157Z,3.30
2019-05-30T07:28:46.109Z,2.00
2019-05-30T07:29:46.094Z,3.00
2019-05-30T07:30:46.071Z,3.20
2019-05-30T07:31:46.059Z,1.90
2019-05-30T07:32:46.035Z,2.80
2019-05-30T07:33:46.051Z,2.50
2019-05-30T07:34:46.229Z,2.00
2019-05-30T07:35:45.993Z,2.40
2019-05-30T07:36:45.971Z,2.00
2019-05-30T07:37:46.818Z,4.40
2019-05-30T07:38:45.933Z,4.20
2019-05-30T07:39:45.957Z,2.30
2019-05-30T07:40:45.901Z,2.60
2019-05-30T07:41:45.910Z,2.70
2019-05-30T07:42:45.863Z,2.00
2019-05-30T07:43:45.852Z,3.30
2019-05-30T07:44:45.853Z,3.00
2019-05-30T07:45:57.371Z,2.30
2019-05-30T07:46:45.812Z,2.80
2019-05-30T07:47:45.791Z,2.70
2019-05-30T07:48:45.762Z,2.10
2019-05-30T07:49:45.806Z,2.10
2019-05-30T07:50:45.734Z,2.10
2019-05-30T07:51:45.714Z,1.60
2019-05-30T07:52:45.707Z,2.70
2019-05-30T07:53:45.680Z,3.60
2019-05-30T07:54:45.667Z,2.90
2019-05-30T07:55:45.671Z,2.30
2019-05-30T07:56:45.646Z,2.30
2019-05-30T07:57:45.615Z,2.80
2019-05-30T07:58:45.595Z,4.50
2019-05-30T07:59:45.582Z,2.90
2019-05-30T08:00:45.565Z,2.60
2019-05-30T08:01:45.569Z,3.50
2019-05-30T08:02:45.536Z,2.70
2019-05-30T08:03:45.518Z,3.20
2019-05-30T08:04:46.980Z,4.20
2019-05-30T08:05:45.498Z,2.10
2019-05-30T08:06:45.463Z,2.90
2019-05-30T08:07:45.447Z,3.50
2019-05-30T08:08:45.441Z,2.70
2019-05-30T08:09:45.409Z,1.90
2019-05-30T08:10:45.417Z,2.30
2019-05-30T08:11:45.378Z,2.10
2019-05-30T08:12:45.366Z,3.30
2019-05-30T08:13:45.360Z,3.20
2019-05-30T08:14:45.377Z,2.30
2019-05-30T08:15:45.314Z,3.30
2019-05-30T08:16:45.312Z,4.00
2019-05-30T08:17:45.280Z,3.80
2019-05-30T08:18:45.259Z,2.20
2019-05-30T08:19:45.249Z,2.50
2019-05-30T08:20:45.226Z,2.70
2019-05-30T08:21:45.214Z,3.00
2019-05-30T08:22:45.211Z,2.70
2019-05-30T08:23:45.183Z,2.30
2019-05-30T08:24:45.161Z,3.70
2019-05-30T08:25:45.147Z,2.60
2019-05-30T08:26:45.129Z,3.20
2019-05-30T08:27:45.138Z,3.00
2019-05-30T08:28:45.092Z,2.60
2019-05-30T08:29:45.079Z,2.80
2019-05-30T08:30:45.070Z,3.80
2019-05-30T08:31:45.050Z,3.80
2019-05-30T08:32:45.055Z,3.60
2019-05-30T08:33:47.290Z,3.20
2019-05-30T08:34:44.996Z,1.90
2019-05-30T08:35:49.817Z,3.80
2019-05-30T08:36:44.967Z,2.00
2019-05-30T08:37:44.949Z,2.60
2019-05-30T08:38:47.956Z,3.00
2019-05-30T08:39:44.916Z,3.30
2019-05-30T08:40:44.901Z,1.90
2019-05-30T08:41:44.889Z,2.50
2019-05-30T08:42:44.872Z,2.50
2019-05-30T08:43:44.850Z,2.90
2019-05-30T08:44:44.855Z,2.00
2019-05-30T08:45:44.834Z,3.50
2019-05-30T08:46:44.798Z,2.10
2019-05-30T08:47:44.780Z,3.60
2019-05-30T08:48:44.787Z,1.70
2019-05-30T08:49:44.756Z,3.00
2019-05-30T08:50:44.949Z,2.00
2019-05-30T08:51:44.740Z,2.00
2019-05-30T08:52:44.704Z,2.20
2019-05-30T08:53:44.698Z,2.30
2019-05-30T08:54:44.674Z,6.40
2019-05-30T08:55:44.654Z,2.10
2019-05-30T08:56:44.670Z,2.30
2019-05-30T08:57:44.626Z,4.40
2019-05-30T08:58:44.603Z,3.10
2019-05-30T08:59:44.916Z,2.10
2019-05-30T09:00:44.587Z,2.20
2019-05-30T09:01:45.996Z,2.70
2019-05-30T09:02:45.107Z,2.20
2019-05-30T09:03:44.539Z,2.20
2019-05-30T09:04:44.542Z,2.90
2019-05-30T09:06:00.905Z,2.30
2019-05-30T09:06:44.479Z,4.60
2019-05-30T09:07:44.668Z,2.20
2019-05-30T09:08:44.462Z,3.60
2019-05-30T09:09:44.463Z,2.20
2019-05-30T09:10:44.486Z,2.90
2019-05-30T09:11:44.531Z,1.70
2019-05-30T09:12:49.012Z,2.90
2019-05-30T09:13:44.627Z,3.80
2019-05-30T09:14:45.324Z,2.60
2019-05-30T09:15:45.229Z,3.40
2019-05-30T09:16:44.670Z,3.30
2019-05-30T09:17:44.824Z,2.20
2019-05-30T09:18:45.280Z,3.10
2019-05-30T09:19:45.456Z,4.30
2019-05-30T09:20:45.279Z,3.20
2019-05-30T09:21:45.398Z,2.10
2019-05-30T09:22:45.455Z,3.30
2019-05-30T09:23:45.940Z,3.70
2019-05-30T09:24:44.224Z,2.20
2019-05-30T09:25:46.862Z,1.90
2019-05-30T09:26:46.890Z,2.60
2019-05-30T09:27:44.769Z,1.90
2019-05-30T09:28:44.305Z,2.50
2019-05-30T09:29:44.622Z,2.10
2019-05-30T09:30:44.761Z,2.30
2019-05-30T09:31:44.593Z,3.20
2019-05-30T09:32:45.153Z,2.80
2019-05-30T09:33:44.666Z,3.50
2019-05-30T09:34:44.895Z,1.80
2019-05-30T09:35:44.927Z,2.70
2019-05-30T09:36:44.741Z,2.20
2019-05-30T09:37:45.472Z,3.20
2019-05-30T09:38:45.296Z,2.00
2019-05-30T09:39:43.956Z,1.90
2019-05-30T09:40:43.951Z,2.00
2019-05-30T09:41:43.925Z,2.50
2019-05-30T09:42:44.764Z,3.70
2019-05-30T09:43:44.751Z,2.60
2019-05-30T09:44:47.058Z,1.70
2019-05-30T09:45:43.943Z,2.60
2019-05-30T09:46:44.252Z,2.30
2019-05-30T09:47:45.639Z,2.70
2019-05-30T09:48:44.793Z,1.90
2019-05-30T09:49:44.668Z,3.10
2019-05-30T09:50:45.117Z,1.90
2019-05-30T09:51:45.133Z,2.10
2019-05-30T09:52:45.150Z,2.00
2019-05-30T09:53:43.978Z,1.80
2019-05-30T09:54:44.308Z,2.80
2019-05-30T09:55:44.420Z,1.90
2019-05-30T09:56:44.889Z,3.50
2019-05-30T09:57:44.333Z,4.00
2019-05-30T09:58:43.995Z,2.10
2019-05-30T09:59:45.478Z,2.70
2019-05-30T10:00:45.328Z,3.10
2019-05-30T10:01:44.326Z,2.80
2019-05-30T10:02:44.926Z,1.90
2019-05-30T10:03:44.811Z,3.10
2019-05-30T10:04:45.135Z,2.70
2019-05-30T10:05:45.086Z,3.00
2019-05-30T10:06:44.625Z,2.00
2019-05-30T10:07:45.012Z,2.60
2019-05-30T10:08:44.363Z,2.00
2019-05-30T10:09:44.489Z,2.20
2019-05-30T10:10:45.300Z,3.00
2019-05-30T10:11:44.485Z,2.70
2019-05-30T10:12:43.908Z,2.20
2019-05-30T10:13:44.035Z,2.00
2019-05-30T10:14:45.134Z,2.40
2019-05-30T10:15:44.064Z,2.50
2019-05-30T10:16:47.315Z,2.00
2019-05-30T10:17:44.688Z,2.40
2019-05-30T10:18:44.270Z,2.50
2019-05-30T10:19:45.358Z,2.40
2019-05-30T10:20:44.642Z,2.60
2019-05-30T10:21:45.492Z,2.30
2019-05-30T10:22:44.568Z,2.90
2019-05-30T10:23:43.265Z,2.30
2019-05-30T10:24:43.251Z,2.20
2019-05-30T10:25:43.230Z,2.10
2019-05-30T10:26:43.234Z,2.30
2019-05-30T10:27:43.208Z,2.40
2019-05-30T10:28:43.247Z,2.10
2019-05-30T10:29:43.177Z,2.00
2019-05-30T10:30:43.157Z,1.80
2019-05-30T10:31:44.899Z,2.50
2019-05-30T10:32:43.149Z,2.50
2019-05-30T10:33:44.512Z,2.70
2019-05-30T10:34:43.103Z,2.50
2019-05-30T10:35:45.612Z,2.30
2019-05-30T10:36:44.601Z,3.30
2019-05-30T10:37:43.048Z,2.50
2019-05-30T10:38:43.055Z,2.20
2019-05-30T10:39:43.031Z,2.40
2019-05-30T10:40:43.026Z,2.30
2019-05-30T10:41:43.005Z,2.10
2019-05-30T10:42:42.991Z,3.10
2019-05-30T10:43:42.958Z,1.90
2019-05-30T10:44:42.945Z,2.10
2019-05-30T10:45:42.930Z,2.70
2019-05-30T10:46:42.913Z,2.60
2019-05-30T10:47:42.915Z,3.20
2019-05-30T10:48:42.932Z,2.90
2019-05-30T10:49:42.867Z,1.80
2019-05-30T10:50:42.850Z,2.20
2019-05-30T10:51:42.843Z,6.40
2019-05-30T10:52:42.882Z,3.10
2019-05-30T10:53:42.814Z,2.50
2019-05-30T10:54:42.819Z,2.80
2019-05-30T10:55:42.781Z,2.20
2019-05-30T10:56:42.770Z,3.40
2019-05-30T10:57:42.758Z,2.30
2019-05-30T10:58:42.743Z,2.00
2019-05-30T10:59:42.730Z,2.00
2019-05-30T11:00:42.714Z,2.80
2019-05-30T11:01:42.688Z,2.70
2019-05-30T11:02:42.670Z,2.30
2019-05-30T11:03:42.667Z,3.10
2019-05-30T11:04:42.637Z,2.50
2019-05-30T11:05:42.622Z,2.30
2019-05-30T11:06:42.612Z,3.20
2019-05-30T11:07:54.608Z,2.20
2019-05-30T11:08:42.673Z,1.80
2019-05-30T11:09:42.571Z,2.00
2019-05-30T11:10:42.547Z,2.30
2019-05-30T11:11:42.545Z,2.40
2019-05-30T11:12:42.512Z,3.30
2019-05-30T11:13:42.535Z,2.20
2019-05-30T11:14:42.488Z,1.90
2019-05-30T11:15:42.482Z,2.20
2019-05-30T11:16:42.466Z,3.30
2019-05-30T11:17:42.444Z,2.20
2019-05-30T11:18:42.437Z,2.50
2019-05-30T11:19:42.452Z,2.20
2019-05-30T11:20:42.423Z,2.10
2019-05-30T11:21:42.380Z,1.90
2019-05-30T11:22:42.373Z,2.40
2019-05-30T11:23:42.347Z,1.90
2019-05-30T11:24:42.334Z,2.20
2019-05-30T11:25:42.341Z,2.50
2019-05-30T11:26:42.305Z,2.10
2019-05-30T11:27:42.289Z,2.20
2019-05-30T11:28:42.276Z,2.10
2019-05-30T11:29:42.262Z,2.80
2019-05-30T11:30:42.264Z,2.50
2019-05-30T11:31:42.282Z,2.20
2019-05-30T11:32:42.216Z,2.30
2019-05-30T11:33:42.206Z,2.10
2019-05-30T11:34:42.187Z,2.30
2019-05-30T11:35:42.167Z,2.70
2019-05-30T11:36:42.164Z,2.30
2019-05-30T11:37:42.169Z,2.50
2019-05-30T11:38:42.133Z,3.00
2019-05-30T11:39:42.107Z,2.20
2019-05-30T11:40:42.093Z,2.10
2019-05-30T11:41:42.085Z,2.40
2019-05-30T11:42:42.064Z,2.60
2019-05-30T11:43:42.073Z,2.40
2019-05-30T11:44:42.047Z,3.10
2019-05-30T11:45:42.030Z,2.30
2019-05-30T11:46:42.027Z,2.20
2019-05-30T11:47:41.985Z,2.00
2019-05-30T11:48:41.980Z,2.10
2019-05-30T11:49:41.960Z,2.80
2019-05-30T11:50:41.967Z,2.20
2019-05-30T11:51:41.952Z,2.20
2019-05-30T11:52:41.918Z,2.40
2019-05-30T11:53:41.900Z,2.00
2019-05-30T11:54:41.893Z,4.40
2019-05-30T11:55:41.873Z,2.90
2019-05-30T11:56:41.877Z,2.40
2019-05-30T11:57:41.842Z,2.10
2019-05-30T11:58:41.844Z,3.30
2019-05-30T11:59:41.815Z,4.20
2019-05-30T12:00:41.805Z,3.40
2019-05-30T12:01:41.791Z,2.90
2019-05-30T12:02:41.832Z,2.50
2019-05-30T12:03:41.762Z,3.70
2019-05-30T12:04:41.749Z,3.10
2019-05-30T12:05:41.735Z,2.60
2019-05-30T12:06:41.714Z,3.30
2019-05-30T12:07:41.711Z,3.90
2019-05-30T12:08:41.715Z,3.10
2019-05-30T12:09:41.665Z,2.80
2019-05-30T12:10:41.650Z,2.40
2019-05-30T12:11:41.633Z,3.00
2019-05-30T12:12:41.619Z,2.40
2019-05-30T12:13:41.607Z,2.50
2019-05-30T12:14:41.621Z,2.90
2019-05-30T12:15:41.584Z,4.60
2019-05-30T12:16:41.561Z,3.10
2019-05-30T12:17:41.556Z,2.40
2019-05-30T12:18:41.549Z,2.20
2019-05-30T12:19:41.527Z,3.20
2019-05-30T12:20:41.522Z,2.70
2019-05-30T12:21:41.498Z,2.70
2019-05-30T12:22:41.477Z,3.00
2019-05-30T12:23:41.452Z,2.90
2019-05-30T12:24:41.437Z,2.70
2019-05-30T12:25:41.426Z,4.60
2019-05-30T12:26:41.410Z,3.20
2019-05-30T12:27:41.436Z,3.30
2019-05-30T12:28:41.377Z,3.30
2019-05-30T12:29:41.374Z,4.00
2019-05-30T12:30:55.283Z,3.00
2019-05-30T12:31:41.331Z,2.50
2019-05-30T12:32:41.321Z,3.40
2019-05-30T12:33:41.322Z,3.60
2019-05-30T12:34:41.300Z,3.00
2019-05-30T12:35:41.276Z,3.20
2019-05-30T12:36:41.278Z,3.50
2019-05-30T12:37:54.257Z,4.00
2019-05-30T12:38:41.230Z,3.30
2019-05-30T12:39:41.221Z,3.60
2019-05-30T12:40:41.207Z,2.70
2019-05-30T12:41:41.213Z,2.90
2019-05-30T12:42:41.167Z,4.40
2019-05-30T12:43:41.152Z,2.60
2019-05-30T12:44:41.140Z,3.70
2019-05-30T12:45:41.125Z,2.90
2019-05-30T12:46:41.112Z,3.50
2019-05-30T12:47:41.109Z,3.20
2019-05-30T12:48:41.078Z,2.80
2019-05-30T12:49:41.065Z,4.60
2019-05-30T12:50:41.066Z,4.00
2019-05-30T12:51:41.032Z,2.80
2019-05-30T12:52:41.040Z,3.60
2019-05-30T12:53:41.025Z,2.80
2019-05-30T12:54:40.988Z,4.20
2019-05-30T12:55:41.000Z,4.40
2019-05-30T12:56:40.956Z,2.80
2019-05-30T12:57:40.962Z,3.00
2019-05-30T12:58:40.927Z,3.90
2019-05-30T12:59:40.911Z,3.30
2019-05-30T13:00:40.901Z,5.10
2019-05-30T13:01:40.895Z,3.80
2019-05-30T13:02:40.863Z,3.10
2019-05-30T13:03:40.903Z,3.40
2019-05-30T13:04:40.844Z,3.10
2019-05-30T13:05:40.828Z,3.30
2019-05-30T13:06:40.819Z,4.20
2019-05-30T13:07:40.797Z,4.00
2019-05-30T13:08:40.789Z,3.30
2019-05-30T13:09:40.785Z,4.00
2019-05-30T13:10:40.754Z,4.20
2019-05-30T13:11:40.731Z,4.30
2019-05-30T13:12:40.737Z,4.50
2019-05-30T13:13:40.754Z,4.10
2019-05-30T13:14:40.685Z,3.90
2019-05-30T13:15:40.710Z,4.00
2019-05-30T13:16:40.668Z,3.60
2019-05-30T13:17:40.655Z,3.60